sensor_id;sensor_type;location;lat;lon;timestamp;temperature;humidity
74742;SHT30;76291;48.288;16.314;2024-03-07T00:00:04;6.7;74.0
74742;SHT30;76291;48.288;16.314;2024-03-07T00:01:01;6.6;74.5
74742;SHT30;76291;48.288;16.314;2024-03-07T00:02:01;6.6;75.0
74742;SHT30;76291;48.288;16.314;2024-03-07T00:03:01;6.6;75.3
74742;SHT30;76291;48.288;16.314;2024-03-07T00:04:01;6.5;75.0
74742;SHT30;76291;48.288;16.314;2024-03-07T00:05:01;6.5;75.7
74742;SHT30;76291;48.288;16.314;2024-03-07T00:06:01;6.5;75.8
74742;SHT30;76291;48.288;16.314;2024-03-07T00:07:01;6.6;75.3
74742;SHT30;76291;48.288;16.314;2024-03-07T00:08:01;6.5;75.6
74742;SHT30;76291;48.288;16.314;2024-03-07T00:09:01;6.5;75.8
74742;SHT30;76291;48.288;16.314;2024-03-07T00:10:02;6.6;75.9
74742;SHT30;76291;48.288;16.314;2024-03-07T00:12:02;6.6;75.0
74742;SHT30;76291;48.288;16.314;2024-03-07T00:13:01;6.6;75.1
74742;SHT30;76291;48.288;16.314;2024-03-07T00:14:01;6.6;74.5
74742;SHT30;76291;48.288;16.314;2024-03-07T00:15:02;6.7;74.6
74742;SHT30;76291;48.288;16.314;2024-03-07T00:16:01;6.6;74.8
74742;SHT30;76291;48.288;16.314;2024-03-07T00:17:01;6.5;75.1
74742;SHT30;76291;48.288;16.314;2024-03-07T00:18:01;6.6;74.4
74742;SHT30;76291;48.288;16.314;2024-03-07T00:19:01;6.4;74.9
74742;SHT30;76291;48.288;16.314;2024-03-07T00:20:02;6.4;74.5
74742;SHT30;76291;48.288;16.314;2024-03-07T00:21:01;6.5;74.9
74742;SHT30;76291;48.288;16.314;2024-03-07T00:22:01;6.5;74.8
74742;SHT30;76291;48.288;16.314;2024-03-07T00:23:01;6.5;74.8
74742;SHT30;76291;48.288;16.314;2024-03-07T00:24:01;6.5;74.6
74742;SHT30;76291;48.288;16.314;2024-03-07T00:25:01;6.6;73.9
74742;SHT30;76291;48.288;16.314;2024-03-07T00:26:01;6.5;74.5
74742;SHT30;76291;48.288;16.314;2024-03-07T00:27:00;6.6;74.3
74742;SHT30;76291;48.288;16.314;2024-03-07T00:28:00;6.6;74.3
74742;SHT30;76291;48.288;16.314;2024-03-07T00:29:00;6.6;74.9
74742;SHT30;76291;48.288;16.314;2024-03-07T00:30:00;6.6;74.2
74742;SHT30;76291;48.288;16.314;2024-03-07T00:31:00;6.5;75.0
74742;SHT30;76291;48.288;16.314;2024-03-07T00:32:00;6.6;74.1
74742;SHT30;76291;48.288;16.314;2024-03-07T00:33:00;6.5;74.4
74742;SHT30;76291;48.288;16.314;2024-03-07T00:34:00;6.6;74.1
74742;SHT30;76291;48.288;16.314;2024-03-07T00:35:00;6.6;73.1
74742;SHT30;76291;48.288;16.314;2024-03-07T00:36:00;6.6;73.2
74742;SHT30;76291;48.288;16.314;2024-03-07T00:37:00;6.6;73.7
74742;SHT30;76291;48.288;16.314;2024-03-07T00:38:00;6.6;73.5
74742;SHT30;76291;48.288;16.314;2024-03-07T00:39:00;6.5;73.2
74742;SHT30;76291;48.288;16.314;2024-03-07T00:40:00;6.5;73.1
74742;SHT30;76291;48.288;16.314;2024-03-07T00:41:00;6.5;73.6
74742;SHT30;76291;48.288;16.314;2024-03-07T00:42:00;6.5;74.0
74742;SHT30;76291;48.288;16.314;2024-03-07T00:43:00;6.5;73.8
74742;SHT30;76291;48.288;16.314;2024-03-07T00:44:00;6.6;74.0
74742;SHT30;76291;48.288;16.314;2024-03-07T00:45:00;6.5;74.0
74742;SHT30;76291;48.288;16.314;2024-03-07T00:46:00;6.5;74.1
74742;SHT30;76291;48.288;16.314;2024-03-07T00:47:00;6.5;74.2
74742;SHT30;76291;48.288;16.314;2024-03-07T00:48:00;6.5;74.1
74742;SHT30;76291;48.288;16.314;2024-03-07T00:49:00;6.5;73.9
74742;SHT30;76291;48.288;16.314;2024-03-07T00:50:00;6.4;74.3
74742;SHT30;76291;48.288;16.314;2024-03-07T00:51:03;6.4;74.5
74742;SHT30;76291;48.288;16.314;2024-03-07T00:52:00;6.5;73.6
74742;SHT30;76291;48.288;16.314;2024-03-07T00:53:00;6.5;74.2
74742;SHT30;76291;48.288;16.314;2024-03-07T00:54:00;6.4;74.2
74742;SHT30;76291;48.288;16.314;2024-03-07T00:55:00;6.5;73.9
74742;SHT30;76291;48.288;16.314;2024-03-07T00:56:00;6.4;74.0
74742;SHT30;76291;48.288;16.314;2024-03-07T00:57:00;6.5;74.1
74742;SHT30;76291;48.288;16.314;2024-03-07T00:58:00;6.5;74.1
74742;SHT30;76291;48.288;16.314;2024-03-07T00:59:00;6.5;74.1
74742;SHT30;76291;48.288;16.314;2024-03-07T01:00:00;6.5;74.3
74742;SHT30;76291;48.288;16.314;2024-03-07T01:01:00;6.5;74.1
74742;SHT30;76291;48.288;16.314;2024-03-07T01:02:00;6.5;74.3
74742;SHT30;76291;48.288;16.314;2024-03-07T01:03:00;6.5;74.8
74742;SHT30;76291;48.288;16.314;2024-03-07T01:04:00;6.4;74.6
74742;SHT30;76291;48.288;16.314;2024-03-07T01:05:00;6.5;74.5
74742;SHT30;76291;48.288;16.314;2024-03-07T01:06:00;6.5;75.1
74742;SHT30;76291;48.288;16.314;2024-03-07T01:07:00;6.5;74.7
74742;SHT30;76291;48.288;16.314;2024-03-07T01:08:00;6.5;74.8
74742;SHT30;76291;48.288;16.314;2024-03-07T01:09:00;6.4;75.1
74742;SHT30;76291;48.288;16.314;2024-03-07T01:10:03;6.6;74.8
74742;SHT30;76291;48.288;16.314;2024-03-07T01:11:00;6.6;74.5
74742;SHT30;76291;48.288;16.314;2024-03-07T01:12:00;6.5;74.5
74742;SHT30;76291;48.288;16.314;2024-03-07T01:13:00;6.5;75.1
74742;SHT30;76291;48.288;16.314;2024-03-07T01:14:00;6.5;75.2
74742;SHT30;76291;48.288;16.314;2024-03-07T01:15:00;6.5;75.0
74742;SHT30;76291;48.288;16.314;2024-03-07T01:16:00;6.5;74.7
74742;SHT30;76291;48.288;16.314;2024-03-07T01:17:00;6.6;74.6
74742;SHT30;76291;48.288;16.314;2024-03-07T01:18:00;6.5;74.7
74742;SHT30;76291;48.288;16.314;2024-03-07T01:19:00;6.6;74.4
74742;SHT30;76291;48.288;16.314;2024-03-07T01:20:00;6.5;73.9
74742;SHT30;76291;48.288;16.314;2024-03-07T01:21:00;6.4;74.3
74742;SHT30;76291;48.288;16.314;2024-03-07T01:22:00;6.6;74.6
74742;SHT30;76291;48.288;16.314;2024-03-07T01:23:00;6.6;74.9
74742;SHT30;76291;48.288;16.314;2024-03-07T01:24:00;6.6;75.1
74742;SHT30;76291;48.288;16.314;2024-03-07T01:25:00;6.6;74.8
74742;SHT30;76291;48.288;16.314;2024-03-07T01:26:00;6.5;74.4
74742;SHT30;76291;48.288;16.314;2024-03-07T01:27:00;6.6;74.5
74742;SHT30;76291;48.288;16.314;2024-03-07T01:28:00;6.7;74.5
74742;SHT30;76291;48.288;16.314;2024-03-07T01:29:00;6.7;74.9
74742;SHT30;76291;48.288;16.314;2024-03-07T01:30:00;6.6;75.1
74742;SHT30;76291;48.288;16.314;2024-03-07T01:31:00;6.7;74.6
74742;SHT30;76291;48.288;16.314;2024-03-07T01:32:00;6.7;74.3
74742;SHT30;76291;48.288;16.314;2024-03-07T01:33:02;6.7;74.5
74742;SHT30;76291;48.288;16.314;2024-03-07T01:34:00;6.7;74.8
74742;SHT30;76291;48.288;16.314;2024-03-07T01:35:00;6.7;74.8
74742;SHT30;76291;48.288;16.314;2024-03-07T01:36:00;6.7;74.3
74742;SHT30;76291;48.288;16.314;2024-03-07T01:37:00;6.7;74.5
74742;SHT30;76291;48.288;16.314;2024-03-07T01:38:00;6.6;75.1
74742;SHT30;76291;48.288;16.314;2024-03-07T01:39:00;6.6;74.3
74742;SHT30;76291;48.288;16.314;2024-03-07T01:40:00;6.6;74.6
74742;SHT30;76291;48.288;16.314;2024-03-07T01:41:00;6.7;74.3
74742;SHT30;76291;48.288;16.314;2024-03-07T01:42:00;6.7;74.1
74742;SHT30;76291;48.288;16.314;2024-03-07T01:43:01;6.7;74.5
74742;SHT30;76291;48.288;16.314;2024-03-07T01:44:00;6.6;74.5
74742;SHT30;76291;48.288;16.314;2024-03-07T01:45:00;6.6;74.3
74742;SHT30;76291;48.288;16.314;2024-03-07T01:46:03;6.6;74.3
74742;SHT30;76291;48.288;16.314;2024-03-07T01:47:00;6.7;74.1
74742;SHT30;76291;48.288;16.314;2024-03-07T01:48:00;6.6;74.4
74742;SHT30;76291;48.288;16.314;2024-03-07T01:49:00;6.6;75.1
74742;SHT30;76291;48.288;16.314;2024-03-07T01:50:00;6.6;75.2
74742;SHT30;76291;48.288;16.314;2024-03-07T01:51:00;6.7;73.9
74742;SHT30;76291;48.288;16.314;2024-03-07T01:52:00;6.6;74.1
74742;SHT30;76291;48.288;16.314;2024-03-07T01:53:00;6.6;74.6
74742;SHT30;76291;48.288;16.314;2024-03-07T01:54:00;6.6;74.3
74742;SHT30;76291;48.288;16.314;2024-03-07T01:55:00;6.6;74.3
74742;SHT30;76291;48.288;16.314;2024-03-07T01:56:00;6.6;74.0
74742;SHT30;76291;48.288;16.314;2024-03-07T01:57:00;6.5;74.2
74742;SHT30;76291;48.288;16.314;2024-03-07T01:58:01;6.5;74.4
74742;SHT30;76291;48.288;16.314;2024-03-07T01:59:00;6.6;74.2
74742;SHT30;76291;48.288;16.314;2024-03-07T02:00:00;6.5;74.5
74742;SHT30;76291;48.288;16.314;2024-03-07T02:01:00;6.5;74.5
74742;SHT30;76291;48.288;16.314;2024-03-07T02:02:00;6.5;74.8
74742;SHT30;76291;48.288;16.314;2024-03-07T02:03:00;6.5;75.1
74742;SHT30;76291;48.288;16.314;2024-03-07T02:04:00;6.5;75.4
74742;SHT30;76291;48.288;16.314;2024-03-07T02:05:00;6.5;74.8
74742;SHT30;76291;48.288;16.314;2024-03-07T02:06:00;6.6;73.6
74742;SHT30;76291;48.288;16.314;2024-03-07T02:07:00;6.6;72.8
74742;SHT30;76291;48.288;16.314;2024-03-07T02:08:00;6.6;73.4
74742;SHT30;76291;48.288;16.314;2024-03-07T02:09:00;6.4;74.2
74742;SHT30;76291;48.288;16.314;2024-03-07T02:10:00;6.5;74.1
74742;SHT30;76291;48.288;16.314;2024-03-07T02:11:00;6.6;73.7
74742;SHT30;76291;48.288;16.314;2024-03-07T02:12:00;6.5;73.5
74742;SHT30;76291;48.288;16.314;2024-03-07T02:13:00;6.6;73.9
74742;SHT30;76291;48.288;16.314;2024-03-07T02:14:00;6.6;73.5
74742;SHT30;76291;48.288;16.314;2024-03-07T02:15:00;6.4;74.7
74742;SHT30;76291;48.288;16.314;2024-03-07T02:16:00;6.4;74.7
74742;SHT30;76291;48.288;16.314;2024-03-07T02:17:00;6.5;74.0
74742;SHT30;76291;48.288;16.314;2024-03-07T02:18:00;6.4;74.2
74742;SHT30;76291;48.288;16.314;2024-03-07T02:19:00;6.4;74.4
74742;SHT30;76291;48.288;16.314;2024-03-07T02:20:00;6.4;74.5
74742;SHT30;76291;48.288;16.314;2024-03-07T02:21:00;6.4;74.2
74742;SHT30;76291;48.288;16.314;2024-03-07T02:22:00;6.4;74.2
74742;SHT30;76291;48.288;16.314;2024-03-07T02:23:00;6.5;73.8
74742;SHT30;76291;48.288;16.314;2024-03-07T02:24:00;6.5;73.9
74742;SHT30;76291;48.288;16.314;2024-03-07T02:25:00;6.5;73.3
74742;SHT30;76291;48.288;16.314;2024-03-07T02:26:00;6.5;73.9
74742;SHT30;76291;48.288;16.314;2024-03-07T02:27:00;6.4;73.5
74742;SHT30;76291;48.288;16.314;2024-03-07T02:28:00;6.4;73.3
74742;SHT30;76291;48.288;16.314;2024-03-07T02:29:00;6.4;73.7
74742;SHT30;76291;48.288;16.314;2024-03-07T02:30:00;6.4;73.8
74742;SHT30;76291;48.288;16.314;2024-03-07T02:31:00;6.5;73.6
74742;SHT30;76291;48.288;16.314;2024-03-07T02:32:00;6.5;73.1
74742;SHT30;76291;48.288;16.314;2024-03-07T02:33:00;6.5;73.3
74742;SHT30;76291;48.288;16.314;2024-03-07T02:34:03;6.4;73.4
74742;SHT30;76291;48.288;16.314;2024-03-07T02:35:00;6.5;73.1
74742;SHT30;76291;48.288;16.314;2024-03-07T02:36:02;6.4;73.2
74742;SHT30;76291;48.288;16.314;2024-03-07T02:37:00;6.5;73.3
74742;SHT30;76291;48.288;16.314;2024-03-07T02:38:01;6.5;73.3
74742;SHT30;76291;48.288;16.314;2024-03-07T02:39:00;6.4;73.8
74742;SHT30;76291;48.288;16.314;2024-03-07T02:40:00;6.3;73.2
74742;SHT30;76291;48.288;16.314;2024-03-07T02:41:00;6.3;73.8
74742;SHT30;76291;48.288;16.314;2024-03-07T02:42:00;6.3;74.3
74742;SHT30;76291;48.288;16.314;2024-03-07T02:43:00;6.3;74.5
74742;SHT30;76291;48.288;16.314;2024-03-07T02:44:00;6.4;73.5
74742;SHT30;76291;48.288;16.314;2024-03-07T02:45:00;6.4;73.2
74742;SHT30;76291;48.288;16.314;2024-03-07T02:46:00;6.4;74.1
74742;SHT30;76291;48.288;16.314;2024-03-07T02:47:00;6.4;73.7
74742;SHT30;76291;48.288;16.314;2024-03-07T02:48:00;6.4;73.8
74742;SHT30;76291;48.288;16.314;2024-03-07T02:49:00;6.4;73.6
74742;SHT30;76291;48.288;16.314;2024-03-07T02:50:00;6.5;72.8
74742;SHT30;76291;48.288;16.314;2024-03-07T02:51:00;6.5;73.1
74742;SHT30;76291;48.288;16.314;2024-03-07T02:52:00;6.4;73.7
74742;SHT30;76291;48.288;16.314;2024-03-07T02:53:00;6.5;73.3
74742;SHT30;76291;48.288;16.314;2024-03-07T02:54:00;6.5;72.3
74742;SHT30;76291;48.288;16.314;2024-03-07T02:55:00;6.5;72.7
74742;SHT30;76291;48.288;16.314;2024-03-07T02:56:00;6.5;72.8
74742;SHT30;76291;48.288;16.314;2024-03-07T02:57:00;6.5;73.6
74742;SHT30;76291;48.288;16.314;2024-03-07T02:58:00;6.3;73.1
74742;SHT30;76291;48.288;16.314;2024-03-07T02:59:00;6.4;73.5
74742;SHT30;76291;48.288;16.314;2024-03-07T03:00:00;6.5;73.6
74742;SHT30;76291;48.288;16.314;2024-03-07T03:01:00;6.3;73.0
74742;SHT30;76291;48.288;16.314;2024-03-07T03:02:00;6.4;72.7
74742;SHT30;76291;48.288;16.314;2024-03-07T03:03:00;6.4;73.1
74742;SHT30;76291;48.288;16.314;2024-03-07T03:04:00;6.5;72.6
74742;SHT30;76291;48.288;16.314;2024-03-07T03:05:00;6.5;73.2
74742;SHT30;76291;48.288;16.314;2024-03-07T03:06:00;6.4;72.8
74742;SHT30;76291;48.288;16.314;2024-03-07T03:07:00;6.4;72.8
74742;SHT30;76291;48.288;16.314;2024-03-07T03:08:00;6.4;72.7
74742;SHT30;76291;48.288;16.314;2024-03-07T03:09:00;6.4;72.7
74742;SHT30;76291;48.288;16.314;2024-03-07T03:10:00;6.4;73.2
74742;SHT30;76291;48.288;16.314;2024-03-07T03:11:00;6.3;72.5
74742;SHT30;76291;48.288;16.314;2024-03-07T03:12:00;6.4;72.5
74742;SHT30;76291;48.288;16.314;2024-03-07T03:13:00;6.4;72.5
74742;SHT30;76291;48.288;16.314;2024-03-07T03:15:00;6.4;73.3
74742;SHT30;76291;48.288;16.314;2024-03-07T03:16:00;6.4;72.9
74742;SHT30;76291;48.288;16.314;2024-03-07T03:17:00;6.4;73.3
74742;SHT30;76291;48.288;16.314;2024-03-07T03:18:00;6.4;72.8
74742;SHT30;76291;48.288;16.314;2024-03-07T03:19:00;6.3;72.7
74742;SHT30;76291;48.288;16.314;2024-03-07T03:20:00;6.3;73.0
74742;SHT30;76291;48.288;16.314;2024-03-07T03:21:00;6.4;73.0
74742;SHT30;76291;48.288;16.314;2024-03-07T03:22:00;6.3;73.0
74742;SHT30;76291;48.288;16.314;2024-03-07T03:23:00;6.4;73.4
74742;SHT30;76291;48.288;16.314;2024-03-07T03:24:00;6.4;72.6
74742;SHT30;76291;48.288;16.314;2024-03-07T03:25:00;6.4;72.9
74742;SHT30;76291;48.288;16.314;2024-03-07T03:26:02;6.3;73.2
74742;SHT30;76291;48.288;16.314;2024-03-07T03:27:00;6.3;73.2
74742;SHT30;76291;48.288;16.314;2024-03-07T03:28:01;6.3;72.6
74742;SHT30;76291;48.288;16.314;2024-03-07T03:29:00;6.3;72.9
74742;SHT30;76291;48.288;16.314;2024-03-07T03:30:00;6.3;72.8
74742;SHT30;76291;48.288;16.314;2024-03-07T03:31:00;6.3;72.9
74742;SHT30;76291;48.288;16.314;2024-03-07T03:32:00;6.3;73.3
74742;SHT30;76291;48.288;16.314;2024-03-07T03:33:00;6.3;73.5
74742;SHT30;76291;48.288;16.314;2024-03-07T03:34:00;6.3;73.7
74742;SHT30;76291;48.288;16.314;2024-03-07T03:35:00;6.3;73.6
74742;SHT30;76291;48.288;16.314;2024-03-07T03:36:00;6.3;73.1
74742;SHT30;76291;48.288;16.314;2024-03-07T03:37:00;6.3;72.9
74742;SHT30;76291;48.288;16.314;2024-03-07T03:38:00;6.3;73.3
74742;SHT30;76291;48.288;16.314;2024-03-07T03:39:00;6.4;73.3
74742;SHT30;76291;48.288;16.314;2024-03-07T03:40:00;6.4;73.1
74742;SHT30;76291;48.288;16.314;2024-03-07T03:41:00;6.3;73.0
74742;SHT30;76291;48.288;16.314;2024-03-07T03:42:00;6.3;73.1
74742;SHT30;76291;48.288;16.314;2024-03-07T03:43:00;6.3;73.5
74742;SHT30;76291;48.288;16.314;2024-03-07T03:44:00;6.3;73.2
74742;SHT30;76291;48.288;16.314;2024-03-07T03:45:00;6.4;72.7
74742;SHT30;76291;48.288;16.314;2024-03-07T03:46:00;6.4;72.4
74742;SHT30;76291;48.288;16.314;2024-03-07T03:47:00;6.5;72.3
74742;SHT30;76291;48.288;16.314;2024-03-07T03:48:00;6.4;72.7
74742;SHT30;76291;48.288;16.314;2024-03-07T03:49:00;6.4;73.1
74742;SHT30;76291;48.288;16.314;2024-03-07T03:50:00;6.4;73.1
74742;SHT30;76291;48.288;16.314;2024-03-07T03:51:00;6.4;73.4
74742;SHT30;76291;48.288;16.314;2024-03-07T03:52:00;6.4;72.6
74742;SHT30;76291;48.288;16.314;2024-03-07T03:53:03;6.4;73.0
74742;SHT30;76291;48.288;16.314;2024-03-07T03:54:00;6.4;72.7
74742;SHT30;76291;48.288;16.314;2024-03-07T03:55:00;6.4;72.4
74742;SHT30;76291;48.288;16.314;2024-03-07T03:56:00;6.3;72.4
74742;SHT30;76291;48.288;16.314;2024-03-07T03:57:00;6.3;72.4
74742;SHT30;76291;48.288;16.314;2024-03-07T03:58:00;6.3;72.9
74742;SHT30;76291;48.288;16.314;2024-03-07T03:59:00;6.2;73.4
74742;SHT30;76291;48.288;16.314;2024-03-07T04:00:00;6.3;72.8
74742;SHT30;76291;48.288;16.314;2024-03-07T04:01:00;6.4;72.4
74742;SHT30;76291;48.288;16.314;2024-03-07T04:02:00;6.3;72.7
74742;SHT30;76291;48.288;16.314;2024-03-07T04:03:00;6.3;73.0
74742;SHT30;76291;48.288;16.314;2024-03-07T04:04:00;6.2;72.9
74742;SHT30;76291;48.288;16.314;2024-03-07T04:05:00;6.2;73.3
74742;SHT30;76291;48.288;16.314;2024-03-07T04:06:00;6.2;72.9
74742;SHT30;76291;48.288;16.314;2024-03-07T04:07:00;6.3;73.0
74742;SHT30;76291;48.288;16.314;2024-03-07T04:08:00;6.2;72.6
74742;SHT30;76291;48.288;16.314;2024-03-07T04:09:00;6.3;72.7
74742;SHT30;76291;48.288;16.314;2024-03-07T04:10:00;6.3;72.3
74742;SHT30;76291;48.288;16.314;2024-03-07T04:11:01;6.3;72.5
74742;SHT30;76291;48.288;16.314;2024-03-07T04:12:00;6.3;72.7
74742;SHT30;76291;48.288;16.314;2024-03-07T04:13:00;6.3;73.0
74742;SHT30;76291;48.288;16.314;2024-03-07T04:14:00;6.2;72.8
74742;SHT30;76291;48.288;16.314;2024-03-07T04:15:00;6.3;72.7
74742;SHT30;76291;48.288;16.314;2024-03-07T04:16:00;6.2;72.5
74742;SHT30;76291;48.288;16.314;2024-03-07T04:17:03;6.3;72.5
74742;SHT30;76291;48.288;16.314;2024-03-07T04:18:00;6.2;72.9
74742;SHT30;76291;48.288;16.314;2024-03-07T04:19:00;6.3;72.9
74742;SHT30;76291;48.288;16.314;2024-03-07T04:20:00;6.3;72.8
74742;SHT30;76291;48.288;16.314;2024-03-07T04:21:00;6.3;72.6
74742;SHT30;76291;48.288;16.314;2024-03-07T04:22:00;6.4;72.2
74742;SHT30;76291;48.288;16.314;2024-03-07T04:23:03;6.3;72.4
74742;SHT30;76291;48.288;16.314;2024-03-07T04:24:00;6.2;72.7
74742;SHT30;76291;48.288;16.314;2024-03-07T04:25:00;6.3;73.0
74742;SHT30;76291;48.288;16.314;2024-03-07T04:26:00;6.2;72.9
74742;SHT30;76291;48.288;16.314;2024-03-07T04:27:00;6.3;72.4
74742;SHT30;76291;48.288;16.314;2024-03-07T04:28:00;6.3;72.8
74742;SHT30;76291;48.288;16.314;2024-03-07T04:29:00;6.3;73.1
74742;SHT30;76291;48.288;16.314;2024-03-07T04:30:00;6.3;72.8
74742;SHT30;76291;48.288;16.314;2024-03-07T04:31:00;6.3;73.0
74742;SHT30;76291;48.288;16.314;2024-03-07T04:32:00;6.4;72.4
74742;SHT30;76291;48.288;16.314;2024-03-07T04:33:00;6.4;72.0
74742;SHT30;76291;48.288;16.314;2024-03-07T04:34:00;6.4;72.4
74742;SHT30;76291;48.288;16.314;2024-03-07T04:35:00;6.3;72.3
74742;SHT30;76291;48.288;16.314;2024-03-07T04:36:00;6.3;72.7
74742;SHT30;76291;48.288;16.314;2024-03-07T04:37:00;6.4;72.6
74742;SHT30;76291;48.288;16.314;2024-03-07T04:38:00;6.3;72.7
74742;SHT30;76291;48.288;16.314;2024-03-07T04:39:00;6.3;72.0
74742;SHT30;76291;48.288;16.314;2024-03-07T04:40:00;6.2;72.3
74742;SHT30;76291;48.288;16.314;2024-03-07T04:41:00;6.1;72.6
74742;SHT30;76291;48.288;16.314;2024-03-07T04:42:01;6.1;72.8
74742;SHT30;76291;48.288;16.314;2024-03-07T04:43:00;6.1;73.0
74742;SHT30;76291;48.288;16.314;2024-03-07T04:44:00;6.1;72.9
74742;SHT30;76291;48.288;16.314;2024-03-07T04:45:00;6.1;72.8
74742;SHT30;76291;48.288;16.314;2024-03-07T04:46:00;6.2;72.8
74742;SHT30;76291;48.288;16.314;2024-03-07T04:47:01;6.2;72.6
74742;SHT30;76291;48.288;16.314;2024-03-07T04:48:00;6.1;73.0
74742;SHT30;76291;48.288;16.314;2024-03-07T04:49:00;6.1;73.1
74742;SHT30;76291;48.288;16.314;2024-03-07T04:50:00;6.1;73.7
74742;SHT30;76291;48.288;16.314;2024-03-07T04:51:00;6.1;73.6
74742;SHT30;76291;48.288;16.314;2024-03-07T04:52:01;6.1;73.2
74742;SHT30;76291;48.288;16.314;2024-03-07T04:53:00;6.0;73.6
74742;SHT30;76291;48.288;16.314;2024-03-07T04:54:00;6.1;73.5
74742;SHT30;76291;48.288;16.314;2024-03-07T04:55:00;6.0;73.5
74742;SHT30;76291;48.288;16.314;2024-03-07T04:56:00;6.0;73.5
74742;SHT30;76291;48.288;16.314;2024-03-07T04:57:01;6.1;73.1
74742;SHT30;76291;48.288;16.314;2024-03-07T04:58:00;6.2;72.9
74742;SHT30;76291;48.288;16.314;2024-03-07T04:59:00;6.2;72.6
74742;SHT30;76291;48.288;16.314;2024-03-07T05:00:00;6.2;73.0
74742;SHT30;76291;48.288;16.314;2024-03-07T05:01:00;6.1;73.1
74742;SHT30;76291;48.288;16.314;2024-03-07T05:02:00;6.1;73.2
74742;SHT30;76291;48.288;16.314;2024-03-07T05:03:00;6.1;73.1
74742;SHT30;76291;48.288;16.314;2024-03-07T05:04:00;6.1;73.4
74742;SHT30;76291;48.288;16.314;2024-03-07T05:05:00;6.1;72.9
74742;SHT30;76291;48.288;16.314;2024-03-07T05:06:00;6.2;72.9
74742;SHT30;76291;48.288;16.314;2024-03-07T05:07:00;6.1;73.1
74742;SHT30;76291;48.288;16.314;2024-03-07T05:08:00;6.1;72.9
74742;SHT30;76291;48.288;16.314;2024-03-07T05:09:04;6.2;73.1
74742;SHT30;76291;48.288;16.314;2024-03-07T05:10:00;6.2;73.3
74742;SHT30;76291;48.288;16.314;2024-03-07T05:11:00;6.2;73.4
74742;SHT30;76291;48.288;16.314;2024-03-07T05:12:00;6.2;73.4
74742;SHT30;76291;48.288;16.314;2024-03-07T05:13:00;6.1;73.9
74742;SHT30;76291;48.288;16.314;2024-03-07T05:14:00;6.1;73.2
74742;SHT30;76291;48.288;16.314;2024-03-07T05:15:00;6.0;73.0
74742;SHT30;76291;48.288;16.314;2024-03-07T05:16:00;6.1;73.0
74742;SHT30;76291;48.288;16.314;2024-03-07T05:17:00;6.1;73.2
74742;SHT30;76291;48.288;16.314;2024-03-07T05:18:00;6.1;73.0
74742;SHT30;76291;48.288;16.314;2024-03-07T05:19:00;6.1;73.1
74742;SHT30;76291;48.288;16.314;2024-03-07T05:20:00;6.1;73.2
74742;SHT30;76291;48.288;16.314;2024-03-07T05:21:00;6.1;73.0
74742;SHT30;76291;48.288;16.314;2024-03-07T05:22:00;6.0;73.5
74742;SHT30;76291;48.288;16.314;2024-03-07T05:23:00;6.1;73.3
74742;SHT30;76291;48.288;16.314;2024-03-07T05:24:00;6.0;73.3
74742;SHT30;76291;48.288;16.314;2024-03-07T05:25:00;6.0;73.4
74742;SHT30;76291;48.288;16.314;2024-03-07T05:26:00;6.0;73.3
74742;SHT30;76291;48.288;16.314;2024-03-07T05:27:01;6.0;72.7
74742;SHT30;76291;48.288;16.314;2024-03-07T05:28:00;5.9;72.9
74742;SHT30;76291;48.288;16.314;2024-03-07T05:29:01;5.9;73.2
74742;SHT30;76291;48.288;16.314;2024-03-07T05:30:00;5.9;73.4
74742;SHT30;76291;48.288;16.314;2024-03-07T05:31:00;5.9;73.7
74742;SHT30;76291;48.288;16.314;2024-03-07T05:32:19;5.8;73.9
74742;SHT30;76291;48.288;16.314;2024-03-07T05:33:00;5.9;73.7
74742;SHT30;76291;48.288;16.314;2024-03-07T05:34:00;5.9;73.8
74742;SHT30;76291;48.288;16.314;2024-03-07T05:35:00;5.8;74.1
74742;SHT30;76291;48.288;16.314;2024-03-07T05:36:00;5.8;74.2
74742;SHT30;76291;48.288;16.314;2024-03-07T05:37:00;5.8;74.4
74742;SHT30;76291;48.288;16.314;2024-03-07T05:38:00;5.8;74.4
74742;SHT30;76291;48.288;16.314;2024-03-07T05:39:00;5.8;73.9
74742;SHT30;76291;48.288;16.314;2024-03-07T05:40:00;5.9;73.3
74742;SHT30;76291;48.288;16.314;2024-03-07T05:41:00;6.0;73.1
74742;SHT30;76291;48.288;16.314;2024-03-07T05:42:00;5.9;73.0
74742;SHT30;76291;48.288;16.314;2024-03-07T05:43:00;6.1;72.6
74742;SHT30;76291;48.288;16.314;2024-03-07T05:44:00;5.9;73.2
74742;SHT30;76291;48.288;16.314;2024-03-07T05:45:00;6.0;73.3
74742;SHT30;76291;48.288;16.314;2024-03-07T05:46:00;6.0;73.6
74742;SHT30;76291;48.288;16.314;2024-03-07T05:47:00;5.9;73.6
74742;SHT30;76291;48.288;16.314;2024-03-07T05:48:12;5.8;73.4
74742;SHT30;76291;48.288;16.314;2024-03-07T05:49:00;5.9;72.2
74742;SHT30;76291;48.288;16.314;2024-03-07T05:50:00;5.8;72.2
74742;SHT30;76291;48.288;16.314;2024-03-07T05:51:00;5.8;72.8
74742;SHT30;76291;48.288;16.314;2024-03-07T05:52:00;5.7;72.9
74742;SHT30;76291;48.288;16.314;2024-03-07T05:53:00;5.7;73.3
74742;SHT30;76291;48.288;16.314;2024-03-07T05:54:00;5.7;73.4
74742;SHT30;76291;48.288;16.314;2024-03-07T05:55:00;5.6;73.6
74742;SHT30;76291;48.288;16.314;2024-03-07T05:56:00;5.7;73.9
74742;SHT30;76291;48.288;16.314;2024-03-07T05:57:02;5.7;74.0
74742;SHT30;76291;48.288;16.314;2024-03-07T05:58:00;5.7;74.0
74742;SHT30;76291;48.288;16.314;2024-03-07T05:59:00;5.7;73.8
74742;SHT30;76291;48.288;16.314;2024-03-07T06:00:00;5.7;73.9
74742;SHT30;76291;48.288;16.314;2024-03-07T06:01:00;5.7;74.0
74742;SHT30;76291;48.288;16.314;2024-03-07T06:02:00;5.8;73.2
74742;SHT30;76291;48.288;16.314;2024-03-07T06:03:00;5.8;72.9
74742;SHT30;76291;48.288;16.314;2024-03-07T06:04:04;5.7;73.1
74742;SHT30;76291;48.288;16.314;2024-03-07T06:05:00;5.7;73.1
74742;SHT30;76291;48.288;16.314;2024-03-07T06:06:00;5.8;73.0
74742;SHT30;76291;48.288;16.314;2024-03-07T06:07:00;5.8;72.7
74742;SHT30;76291;48.288;16.314;2024-03-07T06:08:00;5.8;73.3
74742;SHT30;76291;48.288;16.314;2024-03-07T06:09:01;5.8;72.8
74742;SHT30;76291;48.288;16.314;2024-03-07T06:10:00;5.8;72.6
74742;SHT30;76291;48.288;16.314;2024-03-07T06:11:00;5.8;72.6
74742;SHT30;76291;48.288;16.314;2024-03-07T06:12:00;5.8;72.2
74742;SHT30;76291;48.288;16.314;2024-03-07T06:13:00;5.8;72.7
74742;SHT30;76291;48.288;16.314;2024-03-07T06:14:00;5.8;72.6
74742;SHT30;76291;48.288;16.314;2024-03-07T06:15:00;5.8;73.0
74742;SHT30;76291;48.288;16.314;2024-03-07T06:16:00;5.7;73.1
74742;SHT30;76291;48.288;16.314;2024-03-07T06:17:00;5.7;73.4
74742;SHT30;76291;48.288;16.314;2024-03-07T06:18:00;5.8;73.2
74742;SHT30;76291;48.288;16.314;2024-03-07T06:19:00;5.8;72.7
74742;SHT30;76291;48.288;16.314;2024-03-07T06:20:00;5.8;73.0
74742;SHT30;76291;48.288;16.314;2024-03-07T06:21:00;5.8;72.1
74742;SHT30;76291;48.288;16.314;2024-03-07T06:22:00;5.7;72.4
74742;SHT30;76291;48.288;16.314;2024-03-07T06:23:00;5.7;72.4
74742;SHT30;76291;48.288;16.314;2024-03-07T06:24:00;5.7;72.3
74742;SHT30;76291;48.288;16.314;2024-03-07T06:25:00;5.7;71.9
74742;SHT30;76291;48.288;16.314;2024-03-07T06:26:00;5.8;72.3
74742;SHT30;76291;48.288;16.314;2024-03-07T06:27:00;5.8;72.6
74742;SHT30;76291;48.288;16.314;2024-03-07T06:28:01;5.8;72.6
74742;SHT30;76291;48.288;16.314;2024-03-07T06:29:00;5.8;71.7
74742;SHT30;76291;48.288;16.314;2024-03-07T06:30:00;5.7;72.3
74742;SHT30;76291;48.288;16.314;2024-03-07T06:31:00;5.8;72.7
74742;SHT30;76291;48.288;16.314;2024-03-07T06:32:00;5.8;72.9
74742;SHT30;76291;48.288;16.314;2024-03-07T06:33:00;5.7;72.2